Time;durP1;ratioP1;P1;durP2;ratioP2;P2;SDS_P1;SDS_P2;PMS_P1;PMS_P2;Temp;Humidity;BMP_temperature;BMP_pressure;BME280_temperature;BME280_humidity;BME280_pressure;Samples;Min_cycle;Max_cycle;Signal;HPM_P1;HPM_P2
2023/03/10 00:01:13;;;;;;;14.17;9.70;;;11.60;90.30;;;;;;5115695;28;20108;-60
2023/03/10 00:03:39;;;;;;;14.80;10.23;;;;;;;;;;5110001;28;20059;-64
2023/03/10 00:06:05;;;;;;;13.90;9.98;;;;;;;;;;5117874;28;20079;-60
2023/03/10 00:08:31;;;;;;;14.82;9.93;;;11.70;90.30;;;;;;5101524;28;20054;-60
2023/03/10 00:10:57;;;;;;;14.35;9.93;;;11.60;90.30;;;;;;5115288;28;20048;-60
2023/03/10 00:13:23;;;;;;;15.88;11.18;;;11.30;90.20;;;;;;5117133;27;20031;-60
2023/03/10 00:15:49;;;;;;;14.75;10.30;;;;;;;;;;5117629;28;20396;-60
2023/03/10 00:18:15;;;;;;;14.52;9.65;;;11.60;90.30;;;;;;5116285;28;20129;-67
2023/03/10 00:20:41;;;;;;;13.00;9.05;;;;;;;;;;5116637;27;20082;-67
2023/03/10 00:23:06;;;;;;;12.88;8.88;;;11.40;90.20;;;;;;5108720;27;20072;-61
2023/03/10 00:25:32;;;;;;;12.93;8.60;;;11.50;90.20;;;;;;5117820;28;20039;-63
2023/03/10 00:27:58;;;;;;;12.93;8.55;;;11.30;90.20;;;;;;5117806;28;20100;-60
2023/03/10 00:30:24;;;;;;;12.25;8.98;;;;;;;;;;5117175;28;20036;-61
2023/03/10 00:32:50;;;;;;;11.30;8.25;;;;;;;;;;5116071;28;20087;-60
2023/03/10 00:35:16;;;;;;;12.20;8.05;;;;;;;;;;5115878;27;20163;-68
2023/03/10 00:37:42;;;;;;;11.32;7.43;;;11.40;90.20;;;;;;5116014;28;20043;-60
2023/03/10 00:40:10;;;;;;;11.43;7.53;;;11.50;90.20;;;;;;5118393;28;20039;-60
2023/03/10 00:42:35;;;;;;;11.43;8.07;;;11.50;90.20;;;;;;5117752;28;20059;-60
2023/03/10 00:45:02;;;;;;;10.57;7.70;;;;;;;;;;5109865;28;20090;-59
2023/03/10 00:47:27;;;;;;;11.68;8.32;;;11.50;90.20;;;;;;5118368;28;20067;-61
2023/03/10 00:49:53;;;;;;;10.73;7.30;;;11.40;90.20;;;;;;5115988;28;21109;-67
2023/03/10 00:52:19;;;;;;;11.38;7.95;;;11.40;90.20;;;;;;5117240;28;20057;-60
2023/03/10 00:54:45;;;;;;;10.15;7.10;;;;;;;;;;5115382;28;20077;-60
2023/03/10 00:57:11;;;;;;;10.65;7.30;;;11.50;90.20;;;;;;5117606;28;20040;-60
2023/03/10 00:59:37;;;;;;;10.65;7.55;;;11.40;90.10;;;;;;5114053;28;20600;-60
2023/03/10 01:02:04;;;;;;;10.95;7.43;;;;;;;;;;5102878;27;20069;-62
2023/03/10 01:04:29;;;;;;;10.63;7.03;;;11.60;90.20;;;;;;5116865;28;20052;-67
2023/03/10 01:06:55;;;;;;;10.43;7.10;;;11.50;86.60;;;;;;5116003;28;20046;-62
2023/03/10 01:09:21;;;;;;;10.02;7.13;;;;;;;;;;5113448;28;20051;-65
2023/03/10 01:11:48;;;;;;;10.00;6.90;;;;;;;;;;5112194;28;20564;-68
2023/03/10 01:14:14;;;;;;;9.68;6.53;;;11.30;90.10;;;;;;5114506;28;20172;-67
2023/03/10 01:16:40;;;;;;;10.02;6.47;;;11.40;90.10;;;;;;5113249;28;20502;-61
2023/03/10 01:19:06;;;;;;;8.93;6.05;;;11.40;90.20;;;;;;5103812;28;20111;-67
2023/03/10 01:21:34;;;;;;;9.48;6.13;;;11.30;87.20;;;;;;5112093;28;20506;-61
2023/03/10 01:24:00;;;;;;;9.10;6.20;;;11.30;90.10;;;;;;5113722;28;20052;-60
2023/03/10 01:26:25;;;;;;;9.07;6.30;;;11.30;90.10;;;;;;5113939;28;20104;-59
2023/03/10 01:28:51;;;;;;;8.98;5.95;;;11.30;90.10;;;;;;5111304;27;20493;-59
2023/03/10 01:31:17;;;;;;;8.85;6.30;;;11.40;90.10;;;;;;5112983;28;20062;-62
2023/03/10 01:33:44;;;;;;;9.05;6.20;;;;;;;;;;5113604;28;20040;-66
2023/03/10 01:36:21;;;;;;;9.35;6.47;;;11.50;87.60;;;;;;5093277;28;20051;-68
2023/03/10 01:38:47;;;;;;;9.02;6.30;;;11.20;88.40;;;;;;5113003;28;20048;-67
2023/03/10 01:41:13;;;;;;;10.27;6.82;;;11.70;90.20;;;;;;5113431;28;20038;-61
2023/03/10 01:43:43;;;;;;;8.90;5.72;;;11.50;87.50;;;;;;5112389;28;20151;-61
2023/03/10 01:46:47;;;;;;;9.15;6.18;;;11.40;88.00;;;;;;5113243;28;20124;-60
2023/03/10 01:49:15;;;;;;;8.85;5.97;;;11.40;90.20;;;;;;5091086;28;20044;-60
2023/03/10 01:51:42;;;;;;;9.05;5.78;;;11.30;90.10;;;;;;5073473;28;20047;-61
2023/03/10 01:54:10;;;;;;;8.65;5.75;;;11.60;90.20;;;;;;5074963;28;20448;-61
2023/03/10 01:56:36;;;;;;;10.20;6.60;;;11.40;90.20;;;;;;5075479;28;20059;-61
2023/03/10 01:59:02;;;;;;;9.13;6.00;;;;;;;;;;5072638;28;20044;-60
2023/03/10 02:01:29;;;;;;;9.18;5.93;;;;;;;;;;5072642;28;20063;-60
2023/03/10 02:04:03;;;;;;;9.50;5.80;;;11.30;87.60;;;;;;5072512;28;20473;-60
2023/03/10 02:06:29;;;;;;;8.98;5.97;;;11.20;90.10;;;;;;5072023;28;20052;-62
2023/03/10 02:08:56;;;;;;;9.15;5.95;;;11.30;87.40;;;;;;5074485;28;20038;-60
2023/03/10 02:11:22;;;;;;;8.63;5.63;;;11.50;90.20;;;;;;5072324;28;20056;-62
2023/03/10 02:13:48;;;;;;;8.32;5.82;;;11.40;90.20;;;;;;5074502;28;20054;-62
2023/03/10 02:16:14;;;;;;;8.35;5.47;;;11.20;90.10;;;;;;5088939;28;20040;-60
2023/03/10 02:18:41;;;;;;;8.82;5.70;;;;;;;;;;5073250;28;20426;-67
2023/03/10 02:21:15;;;;;;;7.90;5.25;;;;;;;;;;5093341;28;20062;-66
2023/03/10 02:23:55;;;;;;;10.63;6.40;;;;;;;;;;5097901;28;20039;-61
2023/03/10 02:26:33;;;;;;;8.73;5.72;;;11.40;86.70;;;;;;5092962;28;20377;-61
2023/03/10 02:29:00;;;;;;;8.18;5.70;;;11.60;90.20;;;;;;5112042;28;20043;-60
2023/03/10 02:31:26;;;;;;;8.45;5.60;;;;;;;;;;5095642;28;20123;-61
2023/03/10 02:33:53;;;;;;;9.10;6.10;;;;;;;;;;5111647;28;20046;-60
2023/03/10 02:36:20;;;;;;;9.43;6.07;;;11.60;90.20;;;;;;5093480;28;20039;-61
2023/03/10 02:38:46;;;;;;;9.30;5.93;;;11.40;90.20;;;;;;5113756;28;20047;-62
2023/03/10 02:41:22;;;;;;;8.98;5.53;;;11.70;86.60;;;;;;5111622;28;20039;-63
2023/03/10 02:43:48;;;;;;;7.97;5.53;;;;;;;;;;5102054;28;20051;-60
2023/03/10 02:46:14;;;;;;;9.35;5.72;;;11.40;90.20;;;;;;5093962;28;20070;-61
2023/03/10 02:48:40;;;;;;;11.18;6.40;;;11.60;90.20;;;;;;5094919;28;20086;-60
2023/03/10 02:51:15;;;;;;;9.05;5.95;;;11.60;87.60;;;;;;5093559;28;20049;-60
2023/03/10 02:53:41;;;;;;;10.63;6.15;;;11.10;90.10;;;;;;5077218;28;20701;-62
2023/03/10 02:56:07;;;;;;;8.95;5.72;;;;;;;;;;5110869;28;20035;-65
2023/03/10 02:58:33;;;;;;;9.98;6.38;;;11.70;90.20;;;;;;5113239;28;20039;-60
2023/03/10 03:00:59;;;;;;;9.30;6.28;;;;;;;;;;5109315;28;20386;-60
2023/03/10 03:03:25;;;;;;;8.60;5.78;;;11.60;90.20;;;;;;5111434;28;20055;-67
2023/03/10 03:05:51;;;;;;;10.38;6.45;;;;;;;;;;5111577;28;20093;-65
2023/03/10 03:08:17;;;;;;;9.55;5.93;;;11.50;90.20;;;;;;5110206;28;20431;-60
2023/03/10 03:10:43;;;;;;;9.30;6.22;;;;;;;;;;5112574;28;20050;-64
2023/03/10 03:13:09;;;;;;;10.85;6.97;;;11.50;90.20;;;;;;5112096;28;20397;-60
2023/03/10 03:15:35;;;;;;;10.10;6.47;;;;;;;;;;5112646;28;20043;-61
2023/03/10 03:18:01;;;;;;;9.93;6.72;;;11.50;90.20;;;;;;5110498;28;20101;-68
2023/03/10 03:20:27;;;;;;;10.23;6.68;;;;;;;;;;5111508;28;20542;-64
2023/03/10 03:22:53;;;;;;;9.95;6.90;;;;;;;;;;5111373;28;20071;-63
2023/03/10 03:25:20;;;;;;;10.45;7.13;;;11.60;90.20;;;;;;5111085;28;20028;-62
2023/03/10 03:27:46;;;;;;;10.32;7.03;;;11.60;90.20;;;;;;5109981;28;20047;-62
2023/03/10 03:30:22;;;;;;;11.13;7.28;;;;;;;;;;5111113;28;20040;-60
2023/03/10 03:32:48;;;;;;;11.23;7.13;;;11.60;90.30;;;;;;5110333;28;20092;-61
2023/03/10 03:35:16;;;;;;;10.90;7.72;;;11.60;87.60;;;;;;5109303;28;20039;-61
2023/03/10 03:37:42;;;;;;;10.98;7.35;;;11.60;90.20;;;;;;5093997;28;20128;-60
2023/03/10 03:40:11;;;;;;;12.00;8.27;;;11.60;88.90;;;;;;5109747;28;20050;-64
2023/03/10 03:42:40;;;;;;;12.25;8.13;;;11.40;87.50;;;;;;5111997;28;20042;-59
2023/03/10 03:45:07;;;;;;;11.73;7.93;;;11.20;90.10;;;;;;5111711;28;20116;-63
2023/03/10 03:47:33;;;;;;;11.27;8.00;;;;;;;;;;5112867;28;20074;-64
2023/03/10 03:49:59;;;;;;;14.25;9.57;;;;;;;;;;5106639;28;20460;-60
2023/03/10 03:52:25;;;;;;;11.85;8.10;;;11.50;90.20;;;;;;5092008;28;20147;-61
2023/03/10 03:54:51;;;;;;;12.48;8.60;;;11.50;90.30;;;;;;5112009;28;20118;-59
2023/03/10 03:57:17;;;;;;;14.75;9.00;;;;;;;;;;5100449;28;20039;-60
2023/03/10 03:59:43;;;;;;;13.48;8.82;;;11.60;90.20;;;;;;5089618;28;20050;-60
2023/03/10 04:02:09;;;;;;;12.23;8.38;;;11.70;90.30;;;;;;5089833;28;20405;-60
2023/03/10 04:04:34;;;;;;;12.18;8.63;;;11.50;90.20;;;;;;5090534;28;20101;-61
2023/03/10 04:07:00;;;;;;;11.98;8.20;;;10.80;87.00;;;;;;5089712;28;20394;-65
2023/03/10 04:09:27;;;;;;;12.07;8.98;;;11.50;90.30;;;;;;5084057;28;20114;-60
2023/03/10 04:11:53;;;;;;;13.60;9.38;;;;;;;;;;5090383;28;20119;-66
2023/03/10 04:14:19;;;;;;;13.30;9.45;;;11.50;90.30;;;;;;5089345;28;20143;-61
2023/03/10 04:16:45;;;;;;;12.93;8.90;;;11.80;90.30;;;;;;5091200;28;20056;-60
2023/03/10 04:19:11;;;;;;;13.57;8.82;;;;;;;;;;5089116;28;20040;-67
2023/03/10 04:21:37;;;;;;;14.70;9.38;;;;;;;;;;5090510;28;20089;-68
2023/03/10 04:24:03;;;;;;;15.00;9.68;;;11.20;87.50;;;;;;5088967;28;20052;-68
2023/03/10 04:26:29;;;;;;;14.60;9.52;;;11.60;90.30;;;;;;5091927;28;20040;-68
2023/03/10 04:28:56;;;;;;;13.73;9.25;;;;;;;;;;5087202;28;20128;-59
2023/03/10 04:31:22;;;;;;;15.60;10.25;;;;;;;;;;5092161;28;20055;-61
2023/03/10 04:33:48;;;;;;;16.08;10.57;;;;;;;;;;5091077;28;20089;-60
2023/03/10 04:36:15;;;;;;;16.70;10.82;;;;;;;;;;5090792;28;20044;-60
2023/03/10 04:38:40;;;;;;;16.15;11.00;;;11.20;90.10;;;;;;5089931;28;20043;-64
2023/03/10 04:41:08;;;;;;;18.13;11.40;;;;;;;;;;5086622;28;20048;-61
2023/03/10 04:43:34;;;;;;;17.33;11.70;;;11.80;90.30;;;;;;5094193;28;20040;-60
2023/03/10 04:46:00;;;;;;;18.35;12.05;;;11.70;90.30;;;;;;5094481;28;20082;-59
2023/03/10 04:48:25;;;;;;;17.88;11.93;;;11.20;87.10;;;;;;5094991;28;20126;-62
2023/03/10 04:50:59;;;;;;;17.23;11.32;;;11.40;86.20;;;;;;5094939;28;20040;-60
2023/03/10 04:53:24;;;;;;;;;;;11.50;88.20;;;;;;5093663;28;20490;-60
2023/03/10 04:55:50;;;;;;;20.67;13.07;;;11.70;90.30;;;;;;5076229;28;19927;-60
2023/03/10 04:58:19;;;;;;;20.55;13.55;;;;;;;;;;5081961;28;20102;-65
2023/03/10 05:00:45;;;;;;;18.25;12.48;;;;;;;;;;5102291;28;20153;-61
2023/03/10 05:03:11;;;;;;;18.50;12.38;;;11.50;90.30;;;;;;5098235;28;20051;-60
2023/03/10 05:05:37;;;;;;;20.55;13.55;;;;;;;;;;5111565;28;20043;-59
2023/03/10 05:08:03;;;;;;;18.08;12.45;;;11.70;90.20;;;;;;5113339;28;20066;-61
2023/03/10 05:10:30;;;;;;;19.70;13.52;;;;;;;;;;5094803;28;20104;-60
2023/03/10 05:12:55;;;;;;;19.15;12.60;;;11.80;90.30;;;;;;5114743;28;20058;-61
2023/03/10 05:15:21;;;;;;;18.80;12.57;;;11.70;90.30;;;;;;5112621;28;20035;-68
2023/03/10 05:17:47;;;;;;;18.70;12.25;;;11.70;90.20;;;;;;5095692;28;20130;-68
2023/03/10 05:20:14;;;;;;;18.50;12.65;;;;;;;;;;5113618;28;20032;-68
2023/03/10 05:22:39;;;;;;;16.45;11.45;;;11.70;90.20;;;;;;5114665;28;20048;-67
2023/03/10 05:25:06;;;;;;;16.55;11.30;;;;;;;;;;5113651;28;20105;-66
2023/03/10 05:27:33;;;;;;;18.20;11.82;;;11.30;90.20;;;;;;5113880;28;20049;-68
2023/03/10 05:29:59;;;;;;;17.40;11.88;;;;;;;;;;5113015;28;20048;-68
2023/03/10 05:32:25;;;;;;;17.67;11.35;;;11.50;90.20;;;;;;5097010;28;20131;-62
2023/03/10 05:34:51;;;;;;;16.75;11.07;;;11.60;90.30;;;;;;5109797;28;20086;-61
2023/03/10 05:37:17;;;;;;;17.48;11.75;;;11.40;90.20;;;;;;5114580;28;20036;-63
2023/03/10 05:39:43;;;;;;;17.25;11.32;;;;;;;;;;5113794;28;20044;-60
2023/03/10 05:42:11;;;;;;;17.90;11.90;;;11.50;86.70;;;;;;5112946;28;20047;-61
2023/03/10 05:44:37;;;;;;;15.93;10.70;;;11.50;90.30;;;;;;5114421;28;20051;-60
2023/03/10 05:47:04;;;;;;;17.27;10.75;;;11.60;90.30;;;;;;5114104;28;20052;-59
2023/03/10 05:49:30;;;;;;;16.45;11.32;;;11.70;89.60;;;;;;5106669;28;20040;-61
2023/03/10 05:51:55;;;;;;;15.80;10.50;;;11.60;90.20;;;;;;5106056;28;20105;-61
2023/03/10 05:54:21;;;;;;;15.43;10.50;;;11.60;90.30;;;;;;5114266;28;20036;-59
2023/03/10 05:56:47;;;;;;;17.17;11.10;;;11.70;90.30;;;;;;5113855;28;20523;-60
2023/03/10 05:59:13;;;;;;;16.02;10.48;;;11.60;90.20;;;;;;5111146;28;20036;-62
2023/03/10 06:01:39;;;;;;;14.65;10.32;;;;;;;;;;5112268;28;20087;-60
2023/03/10 06:04:05;;;;;;;13.85;9.10;;;11.60;90.20;;;;;;5113853;28;20055;-61
2023/03/10 06:06:31;;;;;;;14.68;10.30;;;;;;;;;;5107212;28;20051;-60
2023/03/10 06:08:58;;;;;;;13.52;9.65;;;;;;;;;;5105779;28;20035;-59
2023/03/10 06:11:24;;;;;;;14.07;9.18;;;;;;;;;;5113739;28;20048;-59
2023/03/10 06:13:50;;;;;;;14.77;9.63;;;;;;;;;;5113334;28;20043;-60
2023/03/10 06:16:16;;;;;;;13.85;9.60;;;11.50;90.20;;;;;;5114067;28;20054;-60
2023/03/10 06:18:42;;;;;;;15.23;9.77;;;11.50;90.30;;;;;;5113609;28;20032;-68
2023/03/10 06:21:09;;;;;;;14.70;9.50;;;11.70;90.40;;;;;;5114483;28;20130;-67
2023/03/10 06:23:35;;;;;;;14.13;9.35;;;;;;;;;;5090561;28;20134;-63
2023/03/10 06:26:05;;;;;;;12.82;8.88;;;11.50;90.30;;;;;;5094876;28;20052;-61
2023/03/10 06:28:32;;;;;;;13.43;9.10;;;11.50;88.70;;;;;;5111578;28;20051;-67
2023/03/10 06:31:02;;;;;;;13.80;9.55;;;11.70;90.30;;;;;;5109602;28;20040;-67
2023/03/10 06:33:30;;;;;;;14.45;9.73;;;11.40;87.60;;;;;;5094826;28;20051;-60
2023/03/10 06:35:56;;;;;;;12.98;9.38;;;;;;;;;;5113673;28;20043;-62
2023/03/10 06:38:22;;;;;;;14.23;9.68;;;11.50;90.30;;;;;;5113581;28;20046;-59
2023/03/10 06:40:48;;;;;;;14.60;9.38;;;11.60;90.30;;;;;;5111758;28;20431;-60
2023/03/10 06:43:14;;;;;;;13.73;9.05;;;;;;;;;;5110624;28;20504;-61
2023/03/10 06:45:41;;;;;;;15.30;10.00;;;;;;;;;;5111471;28;20122;-60
2023/03/10 06:48:07;;;;;;;15.18;9.32;;;;;;;;;;5112323;28;20476;-60
2023/03/10 06:50:33;;;;;;;15.43;9.73;;;10.90;90.20;;;;;;5113137;28;20044;-60
2023/03/10 06:52:59;;;;;;;13.57;9.63;;;11.30;90.20;;;;;;5110753;28;20503;-63
2023/03/10 06:55:25;;;;;;;14.88;9.95;;;;;;;;;;5112441;28;20051;-62
2023/03/10 06:57:51;;;;;;;14.32;10.00;;;;;;;;;;5111396;28;20477;-63
2023/03/10 07:00:18;;;;;;;13.95;9.20;;;11.50;90.30;;;;;;5112145;28;20052;-60
2023/03/10 07:02:44;;;;;;;12.48;8.73;;;11.30;90.20;;;;;;5112638;28;20513;-60
2023/03/10 07:05:11;;;;;;;15.73;9.80;;;11.70;90.20;;;;;;5109494;28;20067;-58
2023/03/10 07:07:37;;;;;;;15.88;9.73;;;;;;;;;;5112144;28;20047;-60
2023/03/10 07:10:04;;;;;;;15.18;9.40;;;11.60;90.00;;;;;;5113709;28;20051;-61
2023/03/10 07:12:29;;;;;;;17.05;10.25;;;11.70;90.20;;;;;;5112577;28;20039;-59
2023/03/10 07:14:55;;;;;;;15.75;9.57;;;;;;;;;;5109605;28;20592;-61
2023/03/10 07:17:22;;;;;;;13.82;9.23;;;;;;;;;;5112571;28;20044;-60
2023/03/10 07:19:48;;;;;;;15.05;9.77;;;;;;;;;;5103503;28;20545;-64
2023/03/10 07:22:13;;;;;;;15.20;9.73;;;11.70;90.10;;;;;;5106863;28;20047;-64
2023/03/10 07:24:39;;;;;;;13.05;9.15;;;11.90;90.20;;;;;;5108830;28;20039;-65
2023/03/10 07:27:05;;;;;;;14.40;8.98;;;11.30;90.00;;;;;;5110755;28;20047;-65
2023/03/10 07:29:31;;;;;;;14.45;9.45;;;11.60;90.10;;;;;;5107244;28;20032;-59
2023/03/10 07:31:57;;;;;;;15.18;9.80;;;11.60;86.70;;;;;;5099617;28;20409;-65
2023/03/10 07:34:23;;;;;;;14.82;9.20;;;;;;;;;;5106882;28;20027;-71
2023/03/10 07:36:49;;;;;;;14.52;9.55;;;11.30;90.00;;;;;;5109122;28;20048;-70
2023/03/10 07:39:15;;;;;;;13.43;9.00;;;;;;;;;;5109445;28;20042;-66
2023/03/10 07:41:41;;;;;;;12.57;8.38;;;11.70;90.10;;;;;;5112235;28;20036;-59
2023/03/10 07:44:07;;;;;;;12.90;8.45;;;11.70;90.10;;;;;;5110817;28;20039;-73
2023/03/10 07:46:32;;;;;;;12.57;8.63;;;11.90;90.20;;;;;;5110256;28;20039;-73
2023/03/10 07:49:02;;;;;;;13.68;8.75;;;;;;;;;;5107092;28;20040;-72
2023/03/10 07:51:29;;;;;;;13.63;8.65;;;;;;;;;;5109741;28;20058;-71
2023/03/10 07:53:55;;;;;;;13.88;9.00;;;11.80;90.00;;;;;;5111872;28;20075;-77
2023/03/10 07:56:21;;;;;;;12.43;8.55;;;11.80;90.40;;;;;;5111039;28;20129;-63
2023/03/10 07:58:47;;;;;;;14.52;8.98;;;12.20;90.60;;;;;;5110029;28;20027;-62
2023/03/10 08:01:17;;;;;;;12.20;7.88;;;;;;;;;;5108335;28;20051;-62
2023/03/10 08:03:43;;;;;;;12.80;8.18;;;12.30;90.50;;;;;;5114464;28;20043;-61
2023/03/10 08:06:15;;;;;;;13.38;8.50;;;12.40;87.50;;;;;;5106552;28;20055;-62
2023/03/10 08:08:41;;;;;;;13.97;8.33;;;12.30;90.20;;;;;;5108415;28;20112;-63
2023/03/10 08:11:09;;;;;;;14.48;9.30;;;;;;;;;;5107092;28;20043;-68
2023/03/10 08:13:35;;;;;;;14.50;9.40;;;12.30;87.80;;;;;;5112587;28;20052;-69
2023/03/10 08:16:01;;;;;;;16.48;9.23;;;12.50;89.90;;;;;;5111348;28;20046;-75
2023/03/10 08:18:28;;;;;;;15.15;9.77;;;;;;;;;;5116450;28;20127;-67
2023/03/10 08:20:54;;;;;;;14.18;9.30;;;;;;;;;;5111834;28;20079;-72
2023/03/10 08:23:20;;;;;;;15.70;9.88;;;;;;;;;;5102686;28;20056;-69
2023/03/10 08:25:46;;;;;;;14.55;10.02;;;;;;;;;;5112039;28;20115;-62
2023/03/10 08:28:12;;;;;;;15.70;10.13;;;12.40;89.70;;;;;;5089979;28;20036;-64
2023/03/10 08:30:39;;;;;;;14.13;9.68;;;12.50;89.70;;;;;;5106311;28;20095;-61
2023/03/10 08:33:08;;;;;;;15.90;10.30;;;;;;;;;;5108925;28;20040;-61
2023/03/10 08:35:35;;;;;;;15.88;10.43;;;;;;;;;;5105984;28;20123;-63
2023/03/10 08:38:01;;;;;;;16.02;10.20;;;12.30;89.50;;;;;;5107112;28;20048;-61
2023/03/10 08:40:27;;;;;;;15.77;10.23;;;12.30;89.60;;;;;;5112146;28;20435;-63
2023/03/10 08:42:53;;;;;;;15.90;10.02;;;12.30;89.60;;;;;;5116734;28;20043;-63
2023/03/10 08:45:19;;;;;;;16.70;9.50;;;12.20;89.60;;;;;;5116254;28;20055;-64
2023/03/10 08:47:45;;;;;;;15.95;10.73;;;;;;;;;;5116039;28;20078;-64
2023/03/10 08:50:11;;;;;;;15.07;9.75;;;;;;;;;;5114365;28;20054;-63
2023/03/10 08:52:37;;;;;;;14.32;10.20;;;12.30;89.20;;;;;;5113686;28;20047;-62
2023/03/10 08:55:04;;;;;;;15.30;10.35;;;12.20;89.60;;;;;;5114822;28;20110;-66
2023/03/10 08:57:31;;;;;;;20.48;11.63;;;12.10;89.40;;;;;;5115207;28;20044;-68
2023/03/10 08:59:57;;;;;;;15.85;10.68;;;12.20;89.60;;;;;;5116082;28;20047;-61
2023/03/10 09:02:24;;;;;;;18.30;11.02;;;11.90;89.40;;;;;;5096376;28;20063;-61
2023/03/10 09:04:50;;;;;;;17.27;10.63;;;;;;;;;;5114616;28;20076;-70
2023/03/10 09:07:16;;;;;;;15.48;10.23;;;;;;;;;;5115720;28;20051;-68
2023/03/10 09:09:42;;;;;;;16.23;10.35;;;12.00;89.70;;;;;;5114941;28;20043;-71
2023/03/10 09:12:08;;;;;;;16.17;10.60;;;12.10;89.60;;;;;;5113817;28;20035;-64
2023/03/10 09:14:35;;;;;;;17.15;10.85;;;;;;;;;;5101416;28;20044;-62
2023/03/10 09:17:01;;;;;;;16.77;11.07;;;12.10;89.70;;;;;;5104114;28;20049;-62
2023/03/10 09:19:26;;;;;;;15.82;10.57;;;11.90;85.90;;;;;;5115173;28;20475;-65
2023/03/10 09:21:54;;;;;;;16.90;10.63;;;12.00;89.60;;;;;;5113590;28;20481;-63
2023/03/10 09:24:20;;;;;;;15.82;10.10;;;12.00;89.70;;;;;;5113848;28;20078;-61
2023/03/10 09:26:46;;;;;;;15.10;10.23;;;12.00;89.70;;;;;;5097082;28;20040;-66
2023/03/10 09:29:12;;;;;;;16.13;10.50;;;;;;;;;;5112201;28;20040;-62
2023/03/10 09:31:38;;;;;;;16.23;10.18;;;12.00;89.60;;;;;;5111612;28;20055;-68
2023/03/10 09:34:04;;;;;;;14.45;9.77;;;12.00;89.50;;;;;;5113121;28;20393;-65
2023/03/10 09:36:31;;;;;;;14.82;10.13;;;;;;;;;;5114799;28;20389;-69
2023/03/10 09:38:57;;;;;;;16.08;10.35;;;;;;;;;;5115643;28;20620;-71
2023/03/10 09:41:35;;;;;;;14.98;10.18;;;12.00;85.60;;;;;;5114594;28;20040;-70
2023/03/10 09:44:03;;;;;;;14.48;9.95;;;;;;;;;;5113332;28;20123;-72
2023/03/10 09:46:35;;;;;;;14.48;9.90;;;;;;;;;;5113304;28;20118;-72
2023/03/10 09:49:02;;;;;;;15.45;10.07;;;;;;;;;;5113688;28;20139;-68
2023/03/10 09:51:28;;;;;;;14.75;10.00;;;12.10;89.60;;;;;;5092547;28;20481;-64
2023/03/10 09:54:21;;;;;;;16.15;9.85;;;12.00;85.50;;;;;;5061063;28;20050;-66
2023/03/10 09:56:47;;;;;;;;;;;;;;;;;;5097748;28;20393;-64
2023/03/10 09:59:35;;;;;;;15.50;9.95;;;12.00;86.90;;;;;;5112614;28;20376;-61
2023/03/10 10:02:02;;;;;;;17.27;10.23;;;12.10;87.80;;;;;;5092791;28;20059;-68
2023/03/10 10:04:38;;;;;;;13.38;9.50;;;12.00;87.10;;;;;;5067661;28;20662;-64
2023/03/10 10:07:11;;;;;;;14.77;9.90;;;12.10;86.60;;;;;;5088254;28;20093;-61
2023/03/10 10:09:42;;;;;;;12.70;9.07;;;;;;;;;;5060555;28;20105;-71
2023/03/10 10:12:22;;;;;;;13.75;9.27;;;12.20;85.70;;;;;;5088737;28;20047;-62
2023/03/10 10:14:57;;;;;;;14.35;10.13;;;;;;;;;;5106810;28;20079;-62
2023/03/10 10:17:24;;;;;;;14.57;9.43;;;;;;;;;;5102181;28;20050;-64
2023/03/10 10:19:50;;;;;;;13.80;9.13;;;11.60;89.10;;;;;;5102857;28;20052;-60
2023/03/10 10:22:28;;;;;;;13.07;9.10;;;12.00;85.40;;;;;;5085423;28;20035;-65
2023/03/10 10:25:15;;;;;;;12.35;8.93;;;12.30;85.70;;;;;;5094095;28;20046;-61
2023/03/10 10:27:41;;;;;;;14.82;9.52;;;11.90;89.30;;;;;;5108418;28;20057;-61
2023/03/10 10:30:30;;;;;;;13.50;8.90;;;12.20;85.50;;;;;;5089039;28;20031;-61
2023/03/10 10:33:06;;;;;;;15.45;9.05;;;12.20;89.40;;;;;;5108614;28;20122;-66
2023/03/10 10:35:34;;;;;;;13.77;9.13;;;;;;;;;;5110284;28;20051;-66
2023/03/10 10:38:09;;;;;;;14.30;9.25;;;;;;;;;;5086776;28;20405;-64
2023/03/10 10:40:51;;;;;;;12.75;7.95;;;;;;;;;;5097628;27;20047;-68
2023/03/10 10:43:18;;;;;;;13.05;9.00;;;11.80;89.20;;;;;;5110899;28;20058;-65
2023/03/10 10:45:47;;;;;;;13.02;9.18;;;12.10;85.40;;;;;;5104990;28;20048;-65
2023/03/10 10:48:46;;;;;;;13.32;8.80;;;12.10;86.80;;;;;;5092802;28;20052;-66
2023/03/10 10:51:28;;;;;;;14.55;9.15;;;12.20;85.60;;;;;;5059308;28;20059;-65
2023/03/10 10:53:55;;;;;;;12.98;9.18;;;11.60;86.20;;;;;;5098206;28;20048;-66
2023/03/10 10:56:23;;;;;;;14.80;9.40;;;;;;;;;;5083303;28;20036;-62
2023/03/10 10:59:19;;;;;;;12.63;8.88;;;;;;;;;;5112728;28;20053;-66
2023/03/10 11:02:19;;;;;;;12.57;8.63;;;12.20;86.10;;;;;;5110301;28;20059;-66
2023/03/10 11:04:45;;;;;;;12.75;8.73;;;12.10;89.30;;;;;;5111060;28;20056;-70
2023/03/10 11:07:32;;;;;;;13.48;9.40;;;;;;;;;;5106971;28;20042;-69
2023/03/10 11:09:57;;;;;;;14.40;9.23;;;12.00;87.50;;;;;;5098262;28;20455;-65
2023/03/10 11:12:33;;;;;;;13.75;9.57;;;12.10;86.60;;;;;;5090356;28;20051;-63
2023/03/10 11:15:05;;;;;;;15.75;10.00;;;12.10;85.20;;;;;;5095359;28;20439;-67
2023/03/10 11:17:41;;;;;;;13.20;9.30;;;;;;;;;;5108945;28;20401;-69
2023/03/10 11:20:26;;;;;;;12.02;8.70;;;11.90;85.40;;;;;;5091888;28;20095;-63
2023/03/10 11:23:11;;;;;;;12.55;9.00;;;;;;;;;;5056707;28;20048;-65
2023/03/10 11:25:40;;;;;;;13.90;9.05;;;;;;;;;;5110951;28;20051;-67
2023/03/10 11:28:17;;;;;;;13.43;9.48;;;;;;;;;;5110327;28;20044;-66
2023/03/10 11:31:12;;;;;;;11.82;8.55;;;11.80;85.10;;;;;;5108821;28;20036;-68
2023/03/10 11:33:44;;;;;;;15.07;9.43;;;;;;;;;;5081014;28;20062;-70
2023/03/10 11:36:21;;;;;;;12.07;8.35;;;12.20;86.50;;;;;;5102955;28;20047;-66
2023/03/10 11:38:47;;;;;;;12.15;8.20;;;11.90;87.10;;;;;;5095769;28;20051;-69
2023/03/10 11:41:24;;;;;;;12.90;8.88;;;12.00;85.30;;;;;;5087988;28;20519;-67
2023/03/10 11:44:02;;;;;;;13.45;8.45;;;;;;;;;;5095602;28;20044;-70
2023/03/10 11:46:43;;;;;;;13.27;8.32;;;11.70;89.30;;;;;;5103867;28;20047;-70
2023/03/10 11:49:11;;;;;;;12.05;7.93;;;;;;;;;;5089875;28;20059;-68
2023/03/10 11:51:47;;;;;;;14.73;9.25;;;11.90;89.30;;;;;;5112199;28;20083;-69
2023/03/10 11:54:17;;;;;;;12.57;9.05;;;11.90;86.40;;;;;;5107984;28;20046;-69
2023/03/10 11:56:44;;;;;;;11.95;8.57;;;11.90;89.40;;;;;;5110471;28;20525;-63
2023/03/10 11:59:17;;;;;;;11.82;8.18;;;11.90;86.50;;;;;;5110818;28;20084;-65
2023/03/10 12:01:53;;;;;;;13.95;8.90;;;12.00;85.80;;;;;;5106688;28;20066;-70
2023/03/10 12:04:44;;;;;;;11.70;8.38;;;12.00;89.40;;;;;;5098480;28;20048;-70
2023/03/10 12:07:27;;;;;;;13.27;8.73;;;12.00;86.90;;;;;;5090462;28;20401;-60
2023/03/10 12:09:57;;;;;;;12.38;8.20;;;;;;;;;;5110342;28;20040;-61
2023/03/10 12:12:36;;;;;;;13.02;8.32;;;11.90;86.80;;;;;;5110177;28;20400;-60
2023/03/10 12:15:18;;;;;;;12.75;8.48;;;11.90;86.60;;;;;;5088650;28;20439;-59
2023/03/10 12:17:48;;;;;;;11.55;8.13;;;;;;;;;;5076547;28;20392;-60
2023/03/10 12:20:21;;;;;;;12.55;7.97;;;12.00;86.60;;;;;;5107227;28;20509;-60
2023/03/10 12:22:53;;;;;;;;;;;;;;;;;;5084568;28;20051;-61
2023/03/10 12:25:28;;;;;;;12.07;7.80;;;12.20;85.50;;;;;;5108541;28;20385;-59
2023/03/10 12:28:16;;;;;;;12.20;8.00;;;12.20;85.70;;;;;;5105612;28;20540;-65
2023/03/10 12:31:14;;;;;;;11.93;8.20;;;12.20;87.00;;;;;;5094338;28;20098;-60
2023/03/10 12:33:44;;;;;;;9.88;6.75;;;;;;;;;;5105813;28;20043;-65
2023/03/10 12:36:33;;;;;;;10.70;7.10;;;;;;;;;;5100125;28;20031;-63
2023/03/10 12:39:41;;;;;;;10.75;7.10;;;12.10;87.20;;;;;;5108607;28;20075;-63
2023/03/10 12:42:33;;;;;;;10.15;6.72;;;12.00;85.80;;;;;;5067839;28;20049;-64
2023/03/10 12:45:08;;;;;;;10.27;6.80;;;11.90;85.60;;;;;;5068524;28;20076;-65
2023/03/10 12:47:53;;;;;;;11.25;7.35;;;12.10;86.90;;;;;;5068312;28;20426;-64
2023/03/10 12:50:22;;;;;;;11.13;7.57;;;;;;;;;;5043565;28;20041;-67
2023/03/10 12:53:20;;;;;;;11.02;7.20;;;;;;;;;;5049324;28;20059;-62
2023/03/10 12:56:14;;;;;;;10.93;7.38;;;12.00;85.90;;;;;;5059161;28;20056;-61
2023/03/10 12:59:04;;;;;;;;;;;12.00;87.50;;;;;;5054969;28;20154;-67
2023/03/10 13:01:39;;;;;;;10.63;6.82;;;12.10;87.10;;;;;;5068794;28;19928;-68
2023/03/10 13:04:11;;;;;;;10.85;7.13;;;;;;;;;;5054808;28;20048;-68
2023/03/10 13:06:41;;;;;;;10.98;6.97;;;;;;;;;;5053981;28;20056;-63
2023/03/10 13:09:46;;;;;;;10.32;6.57;;;12.00;85.90;;;;;;5069354;28;20111;-63
2023/03/10 13:12:41;;;;;;;9.55;6.30;;;;;;;;;;5064939;28;20536;-62
2023/03/10 13:15:29;;;;;;;10.68;6.78;;;12.30;87.40;;;;;;5067998;28;20187;-63
2023/03/10 13:18:13;;;;;;;9.13;6.28;;;11.90;86.00;;;;;;5081990;28;20044;-64
2023/03/10 13:20:44;;;;;;;11.80;6.95;;;12.30;86.20;;;;;;5113975;28;20043;-68
2023/03/10 13:23:31;;;;;;;11.13;7.25;;;;;;;;;;5114694;28;20043;-60
2023/03/10 13:26:02;;;;;;;9.65;6.43;;;12.00;90.00;;;;;;5102497;28;20493;-68